createdAt,value
2023-08-08T00:00:03.522Z,20.12
2023-08-08T00:02:38.863Z,20.12
2023-08-08T00:05:13.267Z,20.12
2023-08-08T00:07:46.862Z,20.12
2023-08-08T00:10:20.375Z,20.12
2023-08-08T00:12:54.384Z,20.12
2023-08-08T00:15:28.113Z,20.11
2023-08-08T00:18:01.774Z,20.11
2023-08-08T00:20:35.593Z,20.11
2023-08-08T00:23:09.671Z,20.10
2023-08-08T00:25:43.001Z,20.08
2023-08-08T00:28:16.107Z,20.06
2023-08-08T00:30:49.415Z,20.03
2023-08-08T00:33:22.980Z,20.02
2023-08-08T00:35:56.088Z,19.98
2023-08-08T00:38:30.107Z,19.93
2023-08-08T00:41:03.574Z,19.88
2023-08-08T00:43:37.589Z,19.83
2023-08-08T00:46:12.241Z,19.78
2023-08-08T00:48:46.104Z,19.77
2023-08-08T00:51:20.016Z,19.76
2023-08-08T00:53:54.647Z,19.74
2023-08-08T00:56:28.642Z,19.72
2023-08-08T00:59:02.027Z,19.71
2023-08-08T01:01:35.517Z,19.70
2023-08-08T01:04:09.820Z,19.67
2023-08-08T01:06:57.807Z,19.66
2023-08-08T01:09:38.729Z,19.64
2023-08-08T01:12:15.397Z,19.62
2023-08-08T01:14:48.702Z,19.60
2023-08-08T01:17:23.617Z,19.59
2023-08-08T01:19:56.951Z,19.59
2023-08-08T01:22:38.097Z,19.57
2023-08-08T01:25:12.993Z,19.56
2023-08-08T01:27:46.672Z,19.54
2023-08-08T01:30:19.807Z,19.52
2023-08-08T01:32:53.080Z,19.49
2023-08-08T01:35:31.391Z,19.49
2023-08-08T01:38:12.503Z,19.47
2023-08-08T01:40:48.085Z,19.45
2023-08-08T01:43:23.790Z,19.42
2023-08-08T01:45:58.131Z,19.38
2023-08-08T01:48:32.621Z,19.34
2023-08-08T01:51:05.987Z,19.28
2023-08-08T01:53:39.197Z,19.24
2023-08-08T01:56:12.875Z,19.20
2023-08-08T01:58:46.255Z,19.15
2023-08-08T02:01:20.240Z,19.12
2023-08-08T02:03:54.109Z,19.08
2023-08-08T02:06:29.315Z,19.03
2023-08-08T02:09:02.274Z,19.01
2023-08-08T02:11:36.315Z,18.99
2023-08-08T02:14:09.490Z,18.97
2023-08-08T02:16:43.629Z,18.97
2023-08-08T02:19:17.520Z,18.94
2023-08-08T02:21:51.636Z,18.89
2023-08-08T02:24:25.123Z,18.86
2023-08-08T02:26:58.310Z,18.82
2023-08-08T02:29:31.508Z,18.80
2023-08-08T02:32:06.938Z,18.76
2023-08-08T02:34:40.275Z,18.72
2023-08-08T02:37:13.535Z,18.71
2023-08-08T02:39:48.390Z,18.70
2023-08-08T02:42:22.794Z,18.70
2023-08-08T02:44:56.585Z,18.70
2023-08-08T02:47:30.044Z,18.71
2023-08-08T02:50:04.111Z,18.71
2023-08-08T02:52:38.110Z,18.71
2023-08-08T02:55:13.510Z,18.71
2023-08-08T02:57:47.321Z,18.71
2023-08-08T03:00:22.337Z,18.70
2023-08-08T03:02:57.317Z,18.70
2023-08-08T03:05:30.757Z,18.70
2023-08-08T03:08:04.206Z,18.70
2023-08-08T03:10:37.526Z,18.70
2023-08-08T03:13:11.173Z,18.69
2023-08-08T03:15:45.958Z,18.68
2023-08-08T03:18:20.380Z,18.67
2023-08-08T03:20:53.785Z,18.67
2023-08-08T03:23:26.952Z,18.63
2023-08-08T03:26:00.342Z,18.58
2023-08-08T03:28:33.724Z,18.56
2023-08-08T03:31:06.754Z,18.56
2023-08-08T03:33:40.745Z,18.57
2023-08-08T03:36:15.557Z,18.55
2023-08-08T03:38:50.089Z,18.54
2023-08-08T03:41:23.559Z,18.55
2023-08-08T03:43:57.609Z,18.53
2023-08-08T03:46:31.272Z,18.52
2023-08-08T03:49:04.634Z,18.51
2023-08-08T03:51:37.767Z,18.49
2023-08-08T03:54:12.384Z,18.48
2023-08-08T03:56:45.785Z,18.50
2023-08-08T03:59:19.440Z,18.48
2023-08-08T04:01:52.890Z,18.46
2023-08-08T04:04:26.376Z,18.44
2023-08-08T04:07:00.626Z,18.42
2023-08-08T04:09:35.465Z,18.39
2023-08-08T04:12:10.571Z,18.36
2023-08-08T04:14:43.647Z,18.35
2023-08-08T04:17:16.911Z,18.33
2023-08-08T04:19:52.056Z,18.30
2023-08-08T04:22:25.250Z,18.27
2023-08-08T04:24:59.283Z,18.25
2023-08-08T04:27:33.387Z,18.24
2023-08-08T04:30:10.376Z,18.23
2023-08-08T04:32:43.469Z,18.23
2023-08-08T04:35:16.963Z,18.23
2023-08-08T04:37:49.938Z,18.21
2023-08-08T04:40:23.511Z,18.18
2023-08-08T04:42:56.967Z,18.17
2023-08-08T04:45:30.522Z,18.17
2023-08-08T04:48:04.122Z,18.16
2023-08-08T04:50:37.741Z,18.13
2023-08-08T04:53:11.066Z,18.10
2023-08-08T04:55:44.645Z,18.08
2023-08-08T04:58:17.920Z,18.07
2023-08-08T05:00:52.330Z,18.06
2023-08-08T05:03:25.821Z,18.06
2023-08-08T05:06:01.071Z,18.08
2023-08-08T05:08:34.607Z,18.09
2023-08-08T05:11:07.885Z,18.08
2023-08-08T05:13:41.973Z,18.04
2023-08-08T05:16:15.437Z,18.01
2023-08-08T05:18:48.716Z,18.01
2023-08-08T05:21:22.986Z,18.01
2023-08-08T05:23:56.985Z,17.99
2023-08-08T05:26:30.203Z,17.97
2023-08-08T05:29:04.502Z,17.98
2023-08-08T05:31:38.402Z,17.97
2023-08-08T05:34:12.357Z,17.96
2023-08-08T05:36:46.335Z,17.94
2023-08-08T05:39:19.535Z,17.96
2023-08-08T05:41:53.627Z,17.97
2023-08-08T05:44:27.431Z,17.94
2023-08-08T05:47:01.336Z,17.94
2023-08-08T05:49:34.407Z,17.92
2023-08-08T05:52:10.079Z,17.92
2023-08-08T05:54:43.670Z,17.94
2023-08-08T05:57:16.730Z,17.97
2023-08-08T05:59:49.879Z,18.00
2023-08-08T06:02:23.000Z,18.02
2023-08-08T06:04:56.585Z,18.06
2023-08-08T06:07:30.356Z,18.07
2023-08-08T06:10:04.245Z,18.10
2023-08-08T06:12:37.641Z,18.13
2023-08-08T06:15:13.038Z,18.14
2023-08-08T06:17:45.774Z,18.14
2023-08-08T06:20:19.889Z,18.14
2023-08-08T06:22:53.466Z,18.13
2023-08-08T06:25:29.331Z,18.15
2023-08-08T06:28:03.338Z,18.17
2023-08-08T06:30:36.735Z,18.21
2023-08-08T06:33:10.883Z,18.25
2023-08-08T06:35:44.477Z,18.24
2023-08-08T06:38:17.629Z,18.24
2023-08-08T06:40:51.685Z,18.21
2023-08-08T06:43:25.038Z,18.20
2023-08-08T06:46:00.326Z,18.20
2023-08-08T06:48:33.303Z,18.19
2023-08-08T06:51:06.909Z,18.17
2023-08-08T06:53:39.986Z,18.15
2023-08-08T06:56:13.967Z,18.13
2023-08-08T06:58:48.176Z,18.13
2023-08-08T07:01:22.536Z,18.14
2023-08-08T07:03:55.991Z,18.15
2023-08-08T07:06:29.184Z,18.14
2023-08-08T07:09:02.428Z,18.13
2023-08-08T07:11:35.646Z,18.13
2023-08-08T07:14:08.977Z,18.17
2023-08-08T07:16:42.137Z,18.18
2023-08-08T07:19:15.136Z,18.20
2023-08-08T07:21:48.589Z,18.22
2023-08-08T07:24:21.750Z,18.24
2023-08-08T07:26:54.778Z,18.24
2023-08-08T07:29:29.215Z,18.24
2023-08-08T07:32:05.116Z,18.28
2023-08-08T07:34:38.573Z,18.32
2023-08-08T07:37:12.465Z,18.36
2023-08-08T07:39:45.898Z,18.40
2023-08-08T07:42:19.064Z,18.42
2023-08-08T07:44:53.039Z,18.46
2023-08-08T07:47:26.837Z,18.51
2023-08-08T07:50:01.833Z,18.58
2023-08-08T07:52:35.009Z,18.66
2023-08-08T07:55:09.953Z,18.74
2023-08-08T07:57:43.222Z,18.83
2023-08-08T08:00:19.931Z,18.91
2023-08-08T08:02:53.234Z,19.00
2023-08-08T08:05:26.899Z,19.06
2023-08-08T08:08:00.831Z,19.13
2023-08-08T08:10:34.754Z,19.24
2023-08-08T08:13:09.390Z,19.36
2023-08-08T08:15:43.461Z,19.49
2023-08-08T08:18:19.450Z,19.61
2023-08-08T08:20:54.235Z,19.72
2023-08-08T08:23:27.666Z,19.82
2023-08-08T08:26:01.345Z,19.92
2023-08-08T08:28:35.455Z,20.03
2023-08-08T08:31:10.936Z,20.13
2023-08-08T08:33:44.542Z,20.21
2023-08-08T08:36:17.879Z,20.30
2023-08-08T08:38:51.070Z,20.40
2023-08-08T08:41:27.611Z,20.48
2023-08-08T08:44:02.396Z,20.55
2023-08-08T08:46:38.461Z,20.60
2023-08-08T08:49:12.122Z,20.67
2023-08-08T08:51:45.834Z,20.72
2023-08-08T08:54:20.727Z,20.79
2023-08-08T08:56:54.626Z,20.83
2023-08-08T08:59:28.672Z,20.88
2023-08-08T09:02:03.413Z,20.95
2023-08-08T09:04:37.430Z,21.02
2023-08-08T09:07:11.959Z,21.08
2023-08-08T09:09:46.603Z,21.16
2023-08-08T09:12:21.063Z,21.26
2023-08-08T09:14:58.723Z,21.34
2023-08-08T09:20:13.281Z,21.54
2023-08-08T09:22:46.644Z,21.62
2023-08-08T09:25:20.174Z,21.71
2023-08-08T09:27:54.906Z,21.79
2023-08-08T09:30:28.643Z,21.86
2023-08-08T09:33:04.661Z,21.95
2023-08-08T09:35:40.517Z,22.07
2023-08-08T09:38:13.976Z,22.09
2023-08-08T09:40:48.093Z,21.92
2023-08-08T09:43:21.377Z,21.49
2023-08-08T09:45:56.156Z,21.10
2023-08-08T09:48:34.332Z,20.75
2023-08-08T09:51:09.075Z,20.50
2023-08-08T09:53:43.550Z,20.34
2023-08-08T09:56:19.029Z,20.17
2023-08-08T09:58:53.126Z,20.03
2023-08-08T10:01:27.777Z,19.83
2023-08-08T10:04:01.995Z,19.62
2023-08-08T10:06:35.314Z,19.50
2023-08-08T10:09:10.057Z,19.39
2023-08-08T10:11:45.586Z,19.28
2023-08-08T10:14:19.219Z,19.20
2023-08-08T10:16:52.551Z,19.16
2023-08-08T10:19:27.865Z,19.15
2023-08-08T10:22:06.264Z,19.18
2023-08-08T10:24:40.824Z,19.22
2023-08-08T10:27:14.289Z,19.27
2023-08-08T10:29:51.206Z,19.32
2023-08-08T10:32:28.758Z,19.39
2023-08-08T10:35:08.281Z,19.45
2023-08-08T10:37:42.414Z,19.51
2023-08-08T10:40:21.498Z,19.58
2023-08-08T10:42:57.189Z,19.67
2023-08-08T10:45:34.121Z,19.74
2023-08-08T10:48:15.416Z,19.84
2023-08-08T10:50:49.386Z,19.96
2023-08-08T10:53:25.178Z,20.10
2023-08-08T10:56:04.296Z,20.27
2023-08-08T10:58:43.263Z,20.47
2023-08-08T11:01:18.130Z,20.75
2023-08-08T11:03:52.432Z,20.94
2023-08-08T11:06:26.005Z,21.12
2023-08-08T11:08:59.463Z,21.26
2023-08-08T11:11:38.235Z,21.45
2023-08-08T11:14:17.214Z,21.67
2023-08-08T11:16:52.249Z,21.91
2023-08-08T11:19:26.622Z,22.12
2023-08-08T11:22:00.273Z,22.32
2023-08-08T11:24:38.618Z,22.53
2023-08-08T11:27:11.881Z,22.71
2023-08-08T11:29:51.577Z,22.88
2023-08-08T11:32:25.172Z,23.02
2023-08-08T11:34:58.850Z,23.17
2023-08-08T11:37:32.495Z,23.32
2023-08-08T11:40:07.588Z,23.48
2023-08-08T11:42:42.619Z,23.57
2023-08-08T11:45:16.888Z,23.69
2023-08-08T11:47:53.544Z,23.82
2023-08-08T11:50:29.223Z,23.90
2023-08-08T11:53:04.779Z,24.03
2023-08-08T11:55:42.705Z,24.17
2023-08-08T11:58:18.288Z,24.27
2023-08-08T12:00:51.589Z,24.38
2023-08-08T12:03:25.056Z,24.50
2023-08-08T12:05:58.458Z,24.57
2023-08-08T12:08:35.587Z,24.64
2023-08-08T12:11:09.385Z,24.71
2023-08-08T12:13:44.232Z,24.80
2023-08-08T12:16:18.543Z,24.91
2023-08-08T12:18:52.929Z,24.98
2023-08-08T12:21:27.100Z,25.02
2023-08-08T12:24:00.495Z,25.08
2023-08-08T12:26:34.725Z,25.14
2023-08-08T12:29:08.182Z,25.21
2023-08-08T12:31:41.814Z,25.31
2023-08-08T12:34:15.504Z,25.42
2023-08-08T12:36:48.702Z,25.50
2023-08-08T12:39:23.808Z,25.54
2023-08-08T12:41:57.576Z,25.65
2023-08-08T12:44:31.093Z,25.77
2023-08-08T12:47:05.580Z,25.81
2023-08-08T12:49:39.510Z,25.90
2023-08-08T12:52:12.962Z,26.05
2023-08-08T12:54:46.477Z,26.14
2023-08-08T12:57:20.212Z,26.21
2023-08-08T12:59:53.834Z,26.30
2023-08-08T13:02:27.433Z,26.36
2023-08-08T13:05:02.187Z,26.44
2023-08-08T13:07:35.696Z,26.53
2023-08-08T13:10:11.913Z,26.56
2023-08-08T13:12:45.057Z,26.56
2023-08-08T13:15:18.877Z,26.59
2023-08-08T13:17:52.139Z,26.68
2023-08-08T13:20:25.321Z,26.71
2023-08-08T13:22:58.472Z,26.76
2023-08-08T13:25:32.590Z,26.80
2023-08-08T13:28:06.531Z,26.80
2023-08-08T13:30:40.129Z,26.71
2023-08-08T13:33:13.245Z,26.71
2023-08-08T13:35:46.209Z,26.79
2023-08-08T13:38:19.558Z,26.84
2023-08-08T13:40:53.096Z,26.88
2023-08-08T13:43:26.397Z,26.89
2023-08-08T13:46:01.505Z,26.86
2023-08-08T13:48:35.107Z,26.86
2023-08-08T13:51:09.040Z,26.97
2023-08-08T13:53:42.234Z,27.04
2023-08-08T13:56:16.040Z,27.03
2023-08-08T13:58:49.353Z,27.01
2023-08-08T14:01:22.868Z,27.02
2023-08-08T14:03:57.161Z,27.09
2023-08-08T14:06:31.944Z,27.15
2023-08-08T14:09:05.889Z,27.15
2023-08-08T14:11:40.014Z,27.16
2023-08-08T14:14:14.252Z,27.18
2023-08-08T14:16:47.462Z,27.21
2023-08-08T14:19:21.006Z,27.19
2023-08-08T14:21:55.241Z,27.10
2023-08-08T14:24:28.716Z,27.07
2023-08-08T14:27:02.522Z,27.06
2023-08-08T14:29:35.713Z,27.13
2023-08-08T14:32:12.074Z,27.19
2023-08-08T14:34:45.385Z,27.22
2023-08-08T14:37:18.760Z,27.22
2023-08-08T14:39:52.257Z,27.24
2023-08-08T14:42:25.351Z,27.28
2023-08-08T14:44:59.157Z,27.31
2023-08-08T14:47:32.855Z,27.31
2023-08-08T14:50:07.072Z,27.31
2023-08-08T14:52:40.158Z,27.35
2023-08-08T14:55:13.949Z,27.30
2023-08-08T14:57:47.360Z,27.09
2023-08-08T15:00:21.064Z,26.99
2023-08-08T15:02:54.390Z,26.95
2023-08-08T15:05:27.945Z,26.89
2023-08-08T15:08:01.709Z,26.83
2023-08-08T15:10:36.106Z,26.79
2023-08-08T15:13:09.454Z,26.73
2023-08-08T15:15:43.038Z,26.71
2023-08-08T15:18:15.972Z,26.67
2023-08-08T15:20:50.165Z,26.64
2023-08-08T15:23:23.989Z,26.64
2023-08-08T15:25:59.750Z,26.64
2023-08-08T15:28:33.354Z,26.61
2023-08-08T15:31:07.044Z,26.58
2023-08-08T15:33:40.758Z,26.55
2023-08-08T15:36:14.676Z,26.54
2023-08-08T15:38:47.623Z,26.52
2023-08-08T15:41:21.512Z,26.49
2023-08-08T15:43:54.751Z,26.49
2023-08-08T15:46:28.248Z,26.48
2023-08-08T15:49:01.543Z,26.39
2023-08-08T15:51:34.954Z,26.33
2023-08-08T15:54:09.791Z,26.29
2023-08-08T15:56:43.845Z,26.28
2023-08-08T15:59:18.000Z,26.26
2023-08-08T16:01:51.262Z,26.25
2023-08-08T16:04:24.510Z,26.24
2023-08-08T16:06:58.051Z,26.21
2023-08-08T16:09:32.402Z,26.13
2023-08-08T16:12:06.674Z,26.07
2023-08-08T16:14:40.334Z,26.02
2023-08-08T16:17:14.261Z,25.98
2023-08-08T16:19:47.662Z,25.92
2023-08-08T16:22:21.287Z,25.84
2023-08-08T16:24:55.092Z,25.81
2023-08-08T16:27:28.807Z,25.77
2023-08-08T16:30:03.097Z,25.73
2023-08-08T16:32:36.926Z,25.68
2023-08-08T16:35:11.977Z,25.63
2023-08-08T16:37:45.456Z,25.57
2023-08-08T16:40:18.784Z,25.51
2023-08-08T16:42:52.572Z,25.45
2023-08-08T16:45:26.389Z,25.40
2023-08-08T16:47:59.805Z,25.34
2023-08-08T16:50:33.448Z,25.28
2023-08-08T16:53:07.785Z,25.21
2023-08-08T16:55:43.247Z,25.14
2023-08-08T16:58:17.558Z,25.06
2023-08-08T17:00:54.865Z,24.99
2023-08-08T17:03:28.183Z,24.90
2023-08-08T17:06:02.519Z,24.83
2023-08-08T17:08:36.122Z,24.73
2023-08-08T17:11:09.982Z,24.63
2023-08-08T17:13:44.599Z,24.55
2023-08-08T17:16:21.410Z,24.46
2023-08-08T17:18:55.233Z,24.39
2023-08-08T17:21:29.378Z,24.30
2023-08-08T17:24:03.719Z,24.22
2023-08-08T17:26:38.716Z,24.12
2023-08-08T17:29:12.501Z,24.03
2023-08-08T17:31:46.034Z,23.93
2023-08-08T17:34:19.297Z,23.83
2023-08-08T17:36:52.693Z,23.73
2023-08-08T17:39:26.636Z,23.61
2023-08-08T17:42:00.869Z,23.51
2023-08-08T17:44:36.518Z,23.40
2023-08-08T17:47:11.163Z,23.31
2023-08-08T17:49:45.393Z,23.20
2023-08-08T17:52:19.825Z,23.10
2023-08-08T17:54:54.234Z,22.99
2023-08-08T17:57:27.960Z,22.88
2023-08-08T18:00:02.668Z,22.77
2023-08-08T18:02:42.714Z,22.65
2023-08-08T18:05:16.619Z,22.53
2023-08-08T18:07:50.630Z,22.44
2023-08-08T18:10:25.051Z,22.32
2023-08-08T18:12:58.235Z,22.21
2023-08-08T18:15:31.706Z,22.11
2023-08-08T18:18:06.499Z,22.00
2023-08-08T18:20:40.982Z,21.89
2023-08-08T18:23:14.693Z,21.79
2023-08-08T18:25:47.885Z,21.69
2023-08-08T18:28:22.497Z,21.58
2023-08-08T18:30:56.591Z,21.49
2023-08-08T18:33:31.024Z,21.41
2023-08-08T18:36:05.564Z,21.33
2023-08-08T18:38:44.038Z,21.22
2023-08-08T18:41:18.179Z,21.14
2023-08-08T18:43:51.782Z,21.05
2023-08-08T18:46:25.813Z,20.96
2023-08-08T18:48:59.329Z,20.88
2023-08-08T18:51:34.325Z,20.80
2023-08-08T18:54:09.840Z,20.73
2023-08-08T18:56:43.385Z,20.64
2023-08-08T18:59:17.331Z,20.57
2023-08-08T19:01:54.244Z,20.49
2023-08-08T19:04:27.597Z,20.42
2023-08-08T19:07:01.302Z,20.35
2023-08-08T19:09:34.799Z,20.28
2023-08-08T19:12:10.305Z,20.21
2023-08-08T19:14:43.828Z,20.14
2023-08-08T19:17:18.000Z,20.07
2023-08-08T19:19:51.691Z,20.02
2023-08-08T19:22:28.328Z,19.94
2023-08-08T19:25:02.470Z,19.87
2023-08-08T19:27:36.510Z,19.81
2023-08-08T19:30:16.772Z,19.74
2023-08-08T19:32:50.883Z,19.68
2023-08-08T19:35:24.830Z,19.61
2023-08-08T19:37:59.199Z,19.55
2023-08-08T19:40:34.915Z,19.50
2023-08-08T19:43:08.590Z,19.44
2023-08-08T19:45:42.680Z,19.38
2023-08-08T19:48:17.816Z,19.30
2023-08-08T19:50:51.424Z,19.26
2023-08-08T19:53:25.706Z,19.19
2023-08-08T19:56:01.808Z,19.14
2023-08-08T19:58:36.618Z,19.08
2023-08-08T20:01:11.639Z,19.02
2023-08-08T20:03:45.052Z,18.97
2023-08-08T20:06:19.037Z,18.91
2023-08-08T20:08:56.336Z,18.86
2023-08-08T20:11:30.376Z,18.80
2023-08-08T20:14:07.087Z,18.75
2023-08-08T20:16:40.770Z,18.70
2023-08-08T20:19:14.077Z,18.66
2023-08-08T20:21:48.010Z,18.61
2023-08-08T20:24:22.222Z,18.56
2023-08-08T20:26:55.677Z,18.52
2023-08-08T20:29:30.139Z,18.46
2023-08-08T20:32:04.030Z,18.43
2023-08-08T20:34:37.667Z,18.38
2023-08-08T20:37:12.269Z,18.35
2023-08-08T20:39:46.695Z,18.30
2023-08-08T20:42:20.652Z,18.27
2023-08-08T20:44:55.260Z,18.22
2023-08-08T20:47:28.691Z,18.17
2023-08-08T20:50:02.528Z,18.14
2023-08-08T20:52:38.874Z,18.10
2023-08-08T20:55:13.824Z,18.06
2023-08-08T20:57:46.964Z,18.02
2023-08-08T21:00:22.679Z,17.96
2023-08-08T21:02:56.948Z,17.92
2023-08-08T21:05:30.754Z,17.88
2023-08-08T21:08:03.956Z,17.85
2023-08-08T21:10:38.089Z,17.80
2023-08-08T21:13:11.888Z,17.76
2023-08-08T21:15:46.301Z,17.71
2023-08-08T21:18:20.003Z,17.65
2023-08-08T21:20:53.174Z,17.61
2023-08-08T21:23:26.493Z,17.56
2023-08-08T21:26:00.298Z,17.52
2023-08-08T21:28:34.771Z,17.48
2023-08-08T21:31:07.694Z,17.43
2023-08-08T21:33:40.673Z,17.39
2023-08-08T21:36:14.908Z,17.35
2023-08-08T21:38:49.316Z,17.31
2023-08-08T21:41:23.043Z,17.25
2023-08-08T21:43:57.609Z,17.21
2023-08-08T21:46:31.781Z,17.18
2023-08-08T21:49:05.403Z,17.13
2023-08-08T21:51:38.124Z,17.09
2023-08-08T21:54:12.156Z,17.04
2023-08-08T21:56:47.189Z,16.99
2023-08-08T21:59:21.065Z,16.95
2023-08-08T22:01:54.621Z,16.91
2023-08-08T22:04:27.830Z,16.86
2023-08-08T22:07:02.296Z,16.82
2023-08-08T22:09:36.869Z,16.78
2023-08-08T22:12:11.506Z,16.75
2023-08-08T22:14:44.938Z,16.69
2023-08-08T22:17:19.001Z,16.64
2023-08-08T22:19:52.211Z,16.62
2023-08-08T22:22:26.257Z,16.59
2023-08-08T22:25:00.254Z,16.55
2023-08-08T22:27:33.219Z,16.52
2023-08-08T22:30:07.767Z,16.48
2023-08-08T22:32:41.060Z,16.43
2023-08-08T22:35:15.476Z,16.41
2023-08-08T22:37:49.114Z,16.37
2023-08-08T22:40:23.128Z,16.34
2023-08-08T22:42:56.466Z,16.29
2023-08-08T22:45:30.740Z,16.26
2023-08-08T22:48:04.293Z,16.23
2023-08-08T22:50:42.246Z,16.19
2023-08-08T22:53:16.012Z,16.15
2023-08-08T22:55:50.017Z,16.11
2023-08-08T22:58:23.934Z,16.08
2023-08-08T23:00:57.843Z,16.06
2023-08-08T23:03:32.091Z,16.03
2023-08-08T23:06:05.445Z,16.00
2023-08-08T23:08:39.869Z,15.97
2023-08-08T23:11:14.071Z,15.93
2023-08-08T23:13:47.886Z,15.90
2023-08-08T23:16:21.014Z,15.87
2023-08-08T23:18:53.674Z,15.83
2023-08-08T23:33:30.839Z,15.61
2023-08-08T23:36:04.411Z,15.57
2023-08-08T23:38:38.202Z,15.53
2023-08-08T23:41:11.638Z,15.49
2023-08-08T23:43:44.821Z,15.48
2023-08-08T23:46:18.824Z,15.45
2023-08-08T23:48:52.941Z,15.42
2023-08-08T23:51:26.326Z,15.39
2023-08-08T23:53:59.592Z,15.36
2023-08-08T23:56:32.786Z,15.31
2023-08-08T23:59:06.184Z,15.30
